Time;durP1;ratioP1;P1;durP2;ratioP2;P2;SDS_P1;SDS_P2;PMS_P1;PMS_P2;Temp;Humidity;BMP_temperature;BMP_pressure;BME280_temperature;BME280_humidity;BME280_pressure;Samples;Min_cycle;Max_cycle;Signal;HPM_P1;HPM_P2
2022/10/16 00:03:17;;;;;;;3.97;1.50;;;14.30;99.90;;;;;;10395037;28;20055;-61
2022/10/16 00:08:17;;;;;;;2.85;1.20;;;14.30;99.90;;;;;;10396423;28;20092;-64
2022/10/16 00:13:20;;;;;;;2.63;1.30;;;14.30;99.90;;;;;;10382771;28;20046;-62
2022/10/16 00:18:21;;;;;;;3.67;1.08;;;14.40;99.90;;;;;;10394734;28;20557;-66
2022/10/16 00:23:22;;;;;;;3.78;1.60;;;14.30;99.90;;;;;;10391824;28;20038;-63
2022/10/16 00:28:23;;;;;;;2.47;1.45;;;14.30;99.90;;;;;;10396224;28;20031;-61
2022/10/16 00:33:24;;;;;;;2.35;1.23;;;14.30;99.90;;;;;;10388836;28;20029;-62
2022/10/16 00:38:25;;;;;;;2.47;1.40;;;14.30;99.90;;;;;;10395585;28;20080;-62
2022/10/16 00:43:58;;;;;;;1.55;1.08;;;14.30;99.90;;;;;;10393214;28;20117;-62
2022/10/16 00:49:12;;;;;;;3.17;1.58;;;14.30;99.90;;;;;;10385404;28;20061;-62
2022/10/16 00:54:31;;;;;;;1.88;1.17;;;14.30;99.90;;;;;;10391199;28;20057;-62
2022/10/16 00:59:40;;;;;;;1.95;1.25;;;14.30;99.90;;;;;;10391290;28;20041;-62
2022/10/16 01:04:50;;;;;;;1.90;1.10;;;14.30;99.90;;;;;;10393758;28;20060;-62
2022/10/16 01:10:21;;;;;;;1.63;1.15;;;14.30;99.90;;;;;;10395661;28;20044;-62
2022/10/16 01:15:43;;;;;;;2.22;1.30;;;14.30;99.90;;;;;;10392720;28;20029;-62
2022/10/16 01:20:54;;;;;;;1.40;1.00;;;14.30;99.90;;;;;;10388113;28;20044;-62
2022/10/16 01:25:57;;;;;;;4.30;1.60;;;14.30;99.90;;;;;;10394480;28;20021;-62
2022/10/16 01:31:00;;;;;;;1.85;1.10;;;14.30;99.90;;;;;;10398416;28;20037;-62
2022/10/16 01:36:10;;;;;;;2.92;1.33;;;14.30;99.90;;;;;;10401562;28;20017;-61
2022/10/16 01:41:17;;;;;;;2.83;1.15;;;14.30;99.90;;;;;;10397109;28;20030;-63
2022/10/16 01:46:21;;;;;;;1.75;0.90;;;14.30;99.90;;;;;;10397281;28;20029;-62
2022/10/16 01:51:23;;;;;;;1.85;1.30;;;14.20;99.90;;;;;;10402768;28;20042;-64
2022/10/16 01:56:24;;;;;;;1.38;1.10;;;14.20;99.90;;;;;;10401730;28;20116;-62
2022/10/16 02:01:28;;;;;;;3.63;1.50;;;14.20;99.90;;;;;;10402959;28;20056;-62
2022/10/16 02:06:29;;;;;;;2.33;1.20;;;14.20;99.90;;;;;;10401352;28;20129;-62
2022/10/16 02:11:30;;;;;;;2.22;1.20;;;14.20;99.90;;;;;;10392507;28;20061;-62
2022/10/16 02:16:37;;;;;;;2.92;1.20;;;14.20;99.90;;;;;;10397688;28;20116;-62
2022/10/16 02:21:57;;;;;;;1.80;1.33;;;14.20;99.90;;;;;;10395068;28;20021;-62
2022/10/16 02:27:20;;;;;;;3.72;1.23;;;14.10;99.90;;;;;;10399369;28;20024;-62
2022/10/16 02:32:24;;;;;;;2.65;1.38;;;14.20;99.90;;;;;;10399429;28;20041;-62
2022/10/16 02:37:26;;;;;;;1.40;1.20;;;14.20;99.90;;;;;;10399569;28;20028;-62
2022/10/16 02:42:35;;;;;;;2.55;1.42;;;14.20;99.90;;;;;;10393794;28;20371;-63
2022/10/16 02:47:36;;;;;;;2.97;1.33;;;14.20;99.90;;;;;;10396524;28;20489;-63
2022/10/16 02:52:36;;;;;;;2.47;1.38;;;14.20;99.90;;;;;;10398317;28;20033;-63
2022/10/16 02:57:40;;;;;;;2.38;1.20;;;14.20;99.90;;;;;;10396216;28;20021;-62
2022/10/16 03:02:41;;;;;;;2.00;1.20;;;14.20;99.90;;;;;;10394574;28;20378;-62
2022/10/16 03:07:41;;;;;;;1.95;1.00;;;14.20;99.90;;;;;;10395589;28;20490;-62
2022/10/16 03:12:42;;;;;;;2.20;1.10;;;14.20;99.90;;;;;;10397821;28;20034;-63
2022/10/16 03:17:43;;;;;;;2.63;1.10;;;14.20;99.90;;;;;;10398906;28;20053;-62
2022/10/16 03:22:44;;;;;;;3.28;1.20;;;14.20;99.90;;;;;;10396198;28;20076;-67
2022/10/16 03:27:44;;;;;;;2.10;1.20;;;14.20;99.90;;;;;;10395337;28;20032;-64
2022/10/16 03:32:45;;;;;;;1.85;0.98;;;14.20;99.90;;;;;;10393906;28;20042;-65
2022/10/16 03:37:46;;;;;;;2.45;1.10;;;14.20;99.90;;;;;;10398388;28;20418;-62
2022/10/16 03:42:46;;;;;;;1.73;1.23;;;14.20;99.90;;;;;;10393592;28;20021;-65
2022/10/16 03:47:47;;;;;;;2.20;1.00;;;14.20;99.90;;;;;;10385254;28;20546;-63
2022/10/16 03:52:48;;;;;;;1.30;1.10;;;14.20;99.90;;;;;;10395064;28;20087;-63
2022/10/16 03:57:48;;;;;;;1.02;0.93;;;14.20;99.90;;;;;;10394996;28;20022;-62
2022/10/16 04:02:49;;;;;;;1.05;0.82;;;14.20;99.90;;;;;;10396424;28;20045;-62
2022/10/16 04:07:50;;;;;;;2.42;1.10;;;14.20;99.90;;;;;;10392242;28;20068;-62
2022/10/16 04:12:50;;;;;;;2.10;1.15;;;14.20;99.90;;;;;;10388645;28;20045;-62
2022/10/16 04:17:52;;;;;;;2.22;1.17;;;14.20;99.90;;;;;;10395502;28;20517;-64
2022/10/16 04:22:52;;;;;;;1.73;1.20;;;14.20;99.90;;;;;;10387489;28;20407;-62
2022/10/16 04:27:54;;;;;;;2.35;1.20;;;14.10;99.90;;;;;;10392639;28;20036;-63
2022/10/16 04:32:54;;;;;;;3.38;1.25;;;14.10;99.90;;;;;;10386227;28;20083;-62
2022/10/16 04:37:58;;;;;;;2.58;1.00;;;14.20;99.90;;;;;;10389151;28;20762;-63
2022/10/16 04:42:59;;;;;;;2.35;1.50;;;14.10;99.90;;;;;;10393753;28;20025;-62
2022/10/16 04:48:00;;;;;;;1.83;1.02;;;14.10;99.90;;;;;;10389493;28;20112;-62
2022/10/16 04:53:01;;;;;;;1.85;1.10;;;14.10;99.90;;;;;;10373275;28;20040;-61
2022/10/16 04:58:01;;;;;;;2.00;1.17;;;14.10;99.90;;;;;;10379532;28;20112;-62
2022/10/16 05:03:05;;;;;;;2.22;1.17;;;14.10;99.90;;;;;;10376523;28;20076;-62
2022/10/16 05:08:06;;;;;;;2.17;1.08;;;14.10;99.90;;;;;;10376757;28;20072;-61
2022/10/16 05:13:07;;;;;;;1.20;1.10;;;14.10;99.90;;;;;;10380058;28;20038;-61
2022/10/16 05:18:09;;;;;;;1.75;1.50;;;14.10;99.90;;;;;;10382871;28;20447;-61
2022/10/16 05:23:10;;;;;;;1.90;1.17;;;14.10;99.90;;;;;;10375686;28;20030;-63
2022/10/16 05:28:11;;;;;;;2.55;1.10;;;13.80;99.90;;;;;;10394932;28;20037;-62
2022/10/16 05:33:12;;;;;;;1.75;1.10;;;14.10;99.90;;;;;;10388882;28;20494;-63
2022/10/16 05:38:13;;;;;;;1.83;1.08;;;14.10;99.90;;;;;;10385853;28;20041;-64
2022/10/16 05:43:13;;;;;;;1.77;1.30;;;14.10;99.90;;;;;;10383327;28;20025;-63
2022/10/16 05:48:14;;;;;;;1.58;1.10;;;14.10;99.90;;;;;;10378482;28;20034;-63
2022/10/16 05:53:14;;;;;;;2.60;1.27;;;14.10;99.90;;;;;;10382232;28;20068;-62
2022/10/16 05:58:15;;;;;;;1.75;1.15;;;14.10;99.90;;;;;;10375786;28;20034;-64
2022/10/16 06:03:16;;;;;;;1.23;1.05;;;14.10;99.90;;;;;;10365208;28;20096;-62
2022/10/16 06:08:18;;;;;;;2.22;1.30;;;14.10;99.90;;;;;;10383562;28;20038;-62
2022/10/16 06:13:19;;;;;;;1.50;1.20;;;14.20;99.90;;;;;;10374959;28;20045;-63
2022/10/16 06:18:19;;;;;;;2.03;1.25;;;14.10;99.90;;;;;;10381376;28;20028;-62
2022/10/16 06:23:20;;;;;;;3.30;1.23;;;14.10;99.90;;;;;;10374247;28;20601;-62
2022/10/16 06:28:21;;;;;;;2.13;1.00;;;14.10;99.90;;;;;;10387260;28;20088;-63
2022/10/16 06:33:22;;;;;;;2.63;1.30;;;14.10;99.90;;;;;;10352514;28;20346;-63
2022/10/16 06:38:23;;;;;;;2.15;1.10;;;14.10;99.90;;;;;;10291606;28;20777;-61
2022/10/16 06:43:24;;;;;;;1.40;1.23;;;14.10;99.90;;;;;;10302812;28;20045;-65
2022/10/16 06:48:25;;;;;;;3.25;1.33;;;14.10;99.90;;;;;;10301891;28;20361;-62
2022/10/16 06:53:28;;;;;;;1.63;1.10;;;14.10;99.90;;;;;;10297082;28;20041;-63
2022/10/16 06:58:28;;;;;;;2.30;1.05;;;14.20;99.90;;;;;;10298608;28;20049;-65
2022/10/16 07:03:30;;;;;;;1.98;0.98;;;14.10;99.90;;;;;;10285867;28;20052;-62
2022/10/16 07:08:32;;;;;;;2.25;1.00;;;14.20;99.90;;;;;;10284000;28;20103;-65
2022/10/16 07:13:34;;;;;;;2.25;1.10;;;14.10;99.90;;;;;;10306086;28;20456;-63
2022/10/16 07:18:36;;;;;;;1.75;1.10;;;14.20;99.90;;;;;;10303267;28;20034;-62
2022/10/16 07:23:37;;;;;;;2.97;1.00;;;14.20;99.90;;;;;;10303387;28;20282;-62
2022/10/16 07:28:42;;;;;;;1.92;1.00;;;14.20;99.90;;;;;;10306230;28;20374;-64
2022/10/16 07:33:44;;;;;;;2.60;1.10;;;14.30;99.90;;;;;;10302317;28;20042;-63
2022/10/16 07:38:46;;;;;;;1.23;1.00;;;14.20;99.90;;;;;;10308973;28;20028;-62
2022/10/16 07:43:52;;;;;;;1.35;0.90;;;14.20;99.90;;;;;;10310183;28;20253;-63
2022/10/16 07:48:53;;;;;;;1.77;0.90;;;14.30;99.90;;;;;;10304870;28;20446;-63
2022/10/16 07:53:54;;;;;;;1.48;0.90;;;14.30;99.90;;;;;;10307942;28;20444;-64
2022/10/16 07:58:56;;;;;;;3.25;0.82;;;14.30;99.90;;;;;;10306051;28;20333;-62
2022/10/16 08:03:57;;;;;;;2.38;0.82;;;14.30;99.90;;;;;;10306324;28;20268;-63
2022/10/16 08:08:59;;;;;;;0.80;0.60;;;14.30;99.90;;;;;;10303941;28;20037;-63
2022/10/16 08:14:01;;;;;;;1.63;1.02;;;14.30;99.90;;;;;;10298735;28;20519;-63
2022/10/16 08:19:01;;;;;;;1.45;1.08;;;14.40;99.90;;;;;;10302945;28;20026;-63
2022/10/16 08:24:02;;;;;;;3.63;0.82;;;14.40;99.90;;;;;;10304611;28;20061;-63
2022/10/16 08:29:03;;;;;;;0.98;0.65;;;14.40;99.90;;;;;;10310234;28;20548;-63
2022/10/16 08:34:04;;;;;;;3.17;1.05;;;14.40;99.90;;;;;;10304435;28;20261;-63
2022/10/16 08:39:05;;;;;;;3.53;1.10;;;14.50;99.90;;;;;;10311205;28;20032;-63
2022/10/16 08:44:29;;;;;;;1.25;0.90;;;14.50;99.90;;;;;;10309238;28;20116;-63
2022/10/16 08:49:30;;;;;;;1.50;0.80;;;14.50;99.90;;;;;;10305166;28;20022;-62
2022/10/16 08:54:40;;;;;;;1.40;1.13;;;14.70;99.90;;;;;;10310960;28;20232;-62
2022/10/16 08:59:41;;;;;;;2.95;0.98;;;14.70;99.90;;;;;;10309181;28;20582;-63
2022/10/16 09:04:51;;;;;;;1.83;0.82;;;14.80;99.90;;;;;;10308127;28;20197;-63
2022/10/16 09:10:11;;;;;;;2.17;0.90;;;14.90;99.90;;;;;;10305221;28;20608;-63
2022/10/16 09:15:24;;;;;;;1.25;0.90;;;15.00;99.90;;;;;;10306709;28;20048;-63
2022/10/16 09:20:36;;;;;;;2.60;0.93;;;15.10;99.90;;;;;;10296062;28;20620;-63
2022/10/16 09:25:41;;;;;;;2.33;0.90;;;15.10;99.90;;;;;;10299668;28;20112;-63
2022/10/16 09:30:41;;;;;;;4.50;1.00;;;15.20;99.90;;;;;;10302522;28;20049;-63
2022/10/16 09:35:45;;;;;;;4.03;1.00;;;15.30;99.90;;;;;;10298991;28;20234;-62
2022/10/16 09:40:46;;;;;;;3.10;0.98;;;15.30;99.90;;;;;;10300282;28;20283;-63
2022/10/16 09:46:08;;;;;;;1.65;0.88;;;15.40;99.90;;;;;;10300716;28;20045;-63
2022/10/16 09:51:19;;;;;;;4.55;1.10;;;15.40;99.90;;;;;;10304942;28;20569;-63
2022/10/16 09:56:36;;;;;;;4.35;1.10;;;15.50;99.90;;;;;;10316746;28;20017;-63
2022/10/16 10:01:40;;;;;;;3.97;1.27;;;15.50;99.90;;;;;;10303850;28;20621;-63
2022/10/16 10:06:55;;;;;;;3.25;0.93;;;15.50;99.90;;;;;;10304901;28;20090;-63
2022/10/16 10:11:57;;;;;;;3.58;1.10;;;15.60;99.90;;;;;;10303279;28;20037;-62
2022/10/16 10:17:23;;;;;;;4.95;0.95;;;15.60;99.90;;;;;;10302342;28;20450;-62
2022/10/16 10:22:42;;;;;;;2.65;0.90;;;15.70;99.80;;;;;;10294872;28;20050;-62
2022/10/16 10:28:01;;;;;;;4.95;1.27;;;15.70;99.80;;;;;;10302818;28;20072;-62
2022/10/16 10:33:10;;;;;;;3.25;1.10;;;15.70;99.80;;;;;;10295464;28;20466;-63
2022/10/16 10:38:20;;;;;;;2.38;1.23;;;15.70;99.90;;;;;;10308492;28;20065;-63
2022/10/16 10:43:38;;;;;;;4.75;1.33;;;15.70;99.80;;;;;;10302884;28;20062;-62
2022/10/16 10:49:15;;;;;;;5.38;1.33;;;15.70;99.80;;;;;;10304522;28;20036;-63
2022/10/16 10:54:27;;;;;;;4.43;1.13;;;15.70;99.70;;;;;;10277422;28;20332;-62
2022/10/16 10:59:46;;;;;;;3.55;1.13;;;15.80;99.70;;;;;;10299946;28;20029;-63
2022/10/16 11:05:02;;;;;;;3.53;1.13;;;15.90;99.70;;;;;;10301171;28;20057;-62
2022/10/16 11:10:20;;;;;;;2.75;1.10;;;15.90;99.60;;;;;;10302217;28;20033;-62
2022/10/16 11:15:30;;;;;;;3.85;1.33;;;15.90;99.60;;;;;;10299179;28;20146;-62
2022/10/16 11:21:06;;;;;;;5.10;1.75;;;15.90;99.60;;;;;;10290188;28;20427;-62
2022/10/16 11:26:15;;;;;;;3.15;1.10;;;15.90;99.60;;;;;;10305055;28;20788;-63
2022/10/16 11:31:26;;;;;;;6.28;1.20;;;15.90;99.60;;;;;;10306209;28;20053;-63
2022/10/16 11:36:38;;;;;;;4.68;1.23;;;16.00;99.90;;;;;;10303288;28;20512;-63
2022/10/16 11:41:50;;;;;;;4.30;1.10;;;16.00;99.50;;;;;;10295076;28;20048;-62
2022/10/16 11:47:05;;;;;;;2.28;1.10;;;16.00;99.50;;;;;;10299788;28;20026;-63
2022/10/16 11:52:36;;;;;;;7.72;1.55;;;16.00;99.50;;;;;;10299204;28;20053;-63
2022/10/16 11:57:45;;;;;;;3.25;1.10;;;16.10;99.30;;;;;;10297676;28;20480;-68
2022/10/16 12:02:49;;;;;;;3.70;1.30;;;16.10;99.40;;;;;;10298136;28;20041;-63
2022/10/16 12:08:11;;;;;;;5.53;1.40;;;16.10;99.40;;;;;;10290913;28;20336;-63
2022/10/16 12:13:32;;;;;;;4.53;1.05;;;16.10;99.20;;;;;;10294303;28;20033;-64
2022/10/16 12:18:33;;;;;;;5.93;1.13;;;16.10;99.30;;;;;;10288895;28;20070;-63
2022/10/16 12:23:38;;;;;;;3.03;1.10;;;16.00;99.50;;;;;;10292349;28;20035;-63
2022/10/16 12:28:40;;;;;;;1.95;0.90;;;16.10;99.50;;;;;;10291940;28;20034;-63
2022/10/16 12:33:52;;;;;;;3.38;1.10;;;16.00;99.50;;;;;;10278298;28;20470;-62
2022/10/16 12:38:53;;;;;;;6.00;1.25;;;16.00;99.60;;;;;;10286419;28;20030;-62
2022/10/16 12:43:54;;;;;;;4.25;1.13;;;16.00;99.60;;;;;;10289205;28;20478;-62
2022/10/16 12:49:05;;;;;;;4.55;1.40;;;16.00;99.60;;;;;;10304525;28;20145;-61
2022/10/16 12:54:38;;;;;;;3.67;1.08;;;16.10;99.50;;;;;;10297797;28;20107;-63
2022/10/16 13:00:00;;;;;;;1.90;1.10;;;16.10;99.50;;;;;;10296050;28;20033;-61
2022/10/16 13:05:10;;;;;;;3.08;1.15;;;16.20;99.40;;;;;;10283157;28;20682;-61
2022/10/16 13:10:20;;;;;;;5.32;1.23;;;16.30;99.40;;;;;;10287217;28;20461;-61
2022/10/16 13:15:35;;;;;;;3.70;1.20;;;16.30;99.30;;;;;;10296186;28;20038;-63
2022/10/16 13:20:54;;;;;;;3.45;1.40;;;16.40;99.20;;;;;;10293627;28;20160;-63
2022/10/16 13:25:55;;;;;;;3.10;0.95;;;16.40;99.20;;;;;;10302481;28;20056;-62
2022/10/16 13:31:01;;;;;;;3.78;1.38;;;16.40;99.20;;;;;;10306397;28;20498;-62
2022/10/16 13:36:02;;;;;;;2.75;1.00;;;16.40;99.20;;;;;;10305118;28;20056;-62
2022/10/16 13:41:17;;;;;;;4.43;1.13;;;16.50;99.10;;;;;;10308792;28;20652;-62
2022/10/16 13:46:19;;;;;;;6.72;1.67;;;16.50;99.00;;;;;;10297929;28;20038;-63
2022/10/16 13:51:19;;;;;;;3.92;1.40;;;16.50;99.20;;;;;;10301781;28;20049;-63
2022/10/16 13:56:23;;;;;;;4.95;1.58;;;16.50;99.10;;;;;;10310650;28;20065;-63
2022/10/16 14:01:28;;;;;;;4.32;1.02;;;16.50;99.20;;;;;;10302785;28;20037;-62
2022/10/16 14:06:28;;;;;;;4.85;1.20;;;16.50;99.10;;;;;;10303736;28;20089;-62
2022/10/16 14:11:29;;;;;;;3.47;1.25;;;16.50;99.10;;;;;;10298229;28;20041;-61
2022/10/16 14:16:32;;;;;;;4.65;1.27;;;16.50;99.10;;;;;;10303473;28;20564;-62
2022/10/16 14:21:34;;;;;;;2.65;1.00;;;16.50;99.10;;;;;;10291420;28;20471;-64
2022/10/16 14:26:42;;;;;;;3.78;1.25;;;16.50;99.00;;;;;;10298555;28;20298;-62
2022/10/16 14:31:53;;;;;;;3.05;1.23;;;16.50;99.00;;;;;;10303892;28;20554;-62
2022/10/16 14:37:07;;;;;;;4.22;1.83;;;16.50;99.00;;;;;;10299450;28;20467;-63
2022/10/16 14:42:19;;;;;;;4.90;1.63;;;16.50;99.00;;;;;;10292927;28;20064;-62
2022/10/16 14:47:24;;;;;;;2.65;1.23;;;16.50;98.90;;;;;;10290172;28;20607;-63
2022/10/16 14:52:25;;;;;;;3.15;1.35;;;16.50;99.00;;;;;;10295051;28;20363;-63
2022/10/16 14:57:31;;;;;;;4.88;1.60;;;16.50;99.10;;;;;;10300378;28;20496;-62
2022/10/16 15:02:34;;;;;;;2.65;1.20;;;16.40;99.10;;;;;;10293362;28;20184;-65
2022/10/16 15:07:34;;;;;;;3.10;1.25;;;16.40;99.10;;;;;;10296666;28;20527;-63
2022/10/16 15:12:35;;;;;;;3.33;1.25;;;16.40;99.10;;;;;;10291237;28;20165;-60
2022/10/16 15:17:36;;;;;;;3.33;1.30;;;16.40;99.10;;;;;;10287834;28;20365;-63
2022/10/16 15:22:37;;;;;;;5.82;1.38;;;16.40;99.20;;;;;;10284017;28;20042;-60
2022/10/16 15:27:40;;;;;;;4.60;1.38;;;16.30;99.20;;;;;;10294920;28;20432;-61
2022/10/16 15:32:40;;;;;;;3.08;1.25;;;16.30;99.50;;;;;;10287063;28;20496;-61
2022/10/16 15:37:41;;;;;;;2.80;1.20;;;16.30;99.20;;;;;;10292349;28;20072;-60
2022/10/16 15:42:42;;;;;;;2.63;1.13;;;16.30;99.30;;;;;;10283034;28;20025;-61
2022/10/16 15:47:43;;;;;;;3.63;1.45;;;16.30;99.30;;;;;;10286232;28;20126;-61
2022/10/16 15:52:44;;;;;;;4.45;1.40;;;16.20;99.40;;;;;;10294680;28;20660;-61
2022/10/16 15:57:45;;;;;;;1.52;1.10;;;16.20;99.40;;;;;;10301045;28;20131;-62
2022/10/16 16:02:51;;;;;;;2.75;1.40;;;16.20;99.40;;;;;;10305287;28;20413;-61
2022/10/16 16:07:52;;;;;;;3.65;1.25;;;16.20;99.40;;;;;;10298956;28;20029;-62
2022/10/16 16:12:55;;;;;;;3.45;1.30;;;16.20;99.50;;;;;;10299497;28;20373;-62
2022/10/16 16:17:56;;;;;;;4.45;1.50;;;16.10;99.50;;;;;;10297083;28;20621;-61
2022/10/16 16:22:57;;;;;;;3.45;1.45;;;16.10;99.60;;;;;;10302320;28;20370;-61
2022/10/16 16:27:58;;;;;;;4.60;1.50;;;16.10;99.60;;;;;;10300844;28;20478;-61
2022/10/16 16:32:58;;;;;;;4.10;1.42;;;16.10;99.60;;;;;;10301041;28;20041;-60
2022/10/16 16:37:59;;;;;;;4.60;1.85;;;16.00;99.70;;;;;;10299105;28;20436;-62
2022/10/16 16:43:00;;;;;;;4.95;1.20;;;16.00;99.70;;;;;;10301726;28;20307;-60
2022/10/16 16:48:01;;;;;;;2.90;1.77;;;16.00;99.80;;;;;;10295791;28;20428;-61
2022/10/16 16:53:02;;;;;;;4.78;1.25;;;16.00;99.80;;;;;;10287584;28;20047;-61
2022/10/16 16:58:03;;;;;;;3.40;1.65;;;16.00;99.80;;;;;;10293905;28;20333;-61
2022/10/16 17:03:04;;;;;;;5.68;2.35;;;16.00;99.90;;;;;;10302386;28;20480;-61
2022/10/16 17:08:08;;;;;;;5.30;2.03;;;15.90;99.90;;;;;;10376660;28;20738;-61
2022/10/16 17:13:09;;;;;;;4.22;1.60;;;15.90;99.90;;;;;;10389041;28;20034;-63
2022/10/16 17:18:09;;;;;;;5.60;1.80;;;15.80;99.90;;;;;;10386386;28;20032;-62
2022/10/16 17:23:11;;;;;;;5.88;1.52;;;15.80;99.90;;;;;;10378511;28;20611;-61
2022/10/16 17:28:13;;;;;;;1.63;1.38;;;15.80;99.90;;;;;;10388379;28;20033;-62
2022/10/16 17:33:14;;;;;;;4.78;1.92;;;15.80;99.90;;;;;;10385269;28;20458;-62
2022/10/16 17:38:15;;;;;;;5.82;1.55;;;15.80;99.90;;;;;;10380446;28;20042;-65
2022/10/16 17:43:16;;;;;;;3.67;1.35;;;15.80;99.90;;;;;;10379568;28;20041;-63
2022/10/16 17:48:17;;;;;;;6.22;2.25;;;15.70;99.90;;;;;;10385537;28;20041;-65
2022/10/16 17:53:17;;;;;;;2.53;1.40;;;15.70;99.90;;;;;;10390591;28;20041;-63
2022/10/16 17:58:18;;;;;;;5.32;1.60;;;15.70;99.90;;;;;;10376259;28;20021;-62
2022/10/16 18:03:19;;;;;;;7.07;2.05;;;15.70;99.90;;;;;;10369309;28;20911;-63
2022/10/16 18:08:19;;;;;;;3.08;1.83;;;15.70;99.90;;;;;;10371408;28;20058;-63
2022/10/16 18:13:20;;;;;;;4.45;1.88;;;15.60;99.90;;;;;;10369662;28;20056;-62
2022/10/16 18:18:21;;;;;;;3.50;1.80;;;15.60;99.90;;;;;;10372046;28;20116;-63
2022/10/16 18:23:21;;;;;;;4.15;1.83;;;15.60;99.90;;;;;;10370324;28;20595;-63
2022/10/16 18:28:22;;;;;;;4.53;2.33;;;15.60;99.90;;;;;;10373236;28;20521;-62
2022/10/16 18:33:24;;;;;;;4.15;2.15;;;15.50;99.90;;;;;;10382177;28;20045;-62
2022/10/16 18:38:25;;;;;;;4.13;1.90;;;15.50;99.90;;;;;;10377830;28;20088;-63
2022/10/16 18:43:25;;;;;;;4.45;1.85;;;15.50;99.90;;;;;;10379971;28;20055;-62
2022/10/16 18:48:29;;;;;;;5.45;2.00;;;15.50;99.90;;;;;;10366956;28;20022;-62
2022/10/16 18:53:30;;;;;;;5.78;2.22;;;15.50;99.90;;;;;;10366758;28;20042;-63
2022/10/16 18:58:30;;;;;;;7.05;1.90;;;15.50;99.90;;;;;;10375677;28;20058;-62
2022/10/16 19:03:31;;;;;;;6.47;1.70;;;15.50;99.90;;;;;;10372905;28;20058;-63
2022/10/16 19:08:32;;;;;;;4.43;2.08;;;15.50;99.90;;;;;;10372653;28;20030;-63
2022/10/16 19:13:34;;;;;;;4.68;2.10;;;15.40;99.90;;;;;;10373218;28;20733;-63
2022/10/16 19:18:37;;;;;;;4.03;1.92;;;15.40;99.90;;;;;;10377821;28;20021;-63
2022/10/16 19:23:39;;;;;;;2.40;1.75;;;15.40;99.90;;;;;;10366705;28;20037;-62
2022/10/16 19:28:40;;;;;;;4.43;1.80;;;15.40;99.90;;;;;;10374877;28;20028;-63
2022/10/16 19:33:42;;;;;;;4.65;2.10;;;15.40;99.90;;;;;;10367240;28;20181;-63
2022/10/16 19:38:43;;;;;;;4.78;2.08;;;15.30;99.90;;;;;;10372646;28;20034;-63
2022/10/16 19:43:44;;;;;;;6.38;2.20;;;15.40;99.90;;;;;;10370438;28;20533;-63
2022/10/16 19:48:46;;;;;;;4.90;2.00;;;15.40;99.90;;;;;;10381143;28;20037;-62
2022/10/16 19:53:47;;;;;;;3.35;2.20;;;15.40;99.90;;;;;;10384488;28;20076;-63
2022/10/16 19:58:49;;;;;;;5.78;1.75;;;15.30;99.90;;;;;;10374455;28;20129;-62
2022/10/16 20:03:50;;;;;;;5.07;2.05;;;15.30;99.90;;;;;;10370017;28;20128;-62
2022/10/16 20:08:52;;;;;;;4.78;2.35;;;15.30;99.90;;;;;;10369160;28;20107;-62
2022/10/16 20:13:53;;;;;;;2.72;2.30;;;15.30;99.90;;;;;;10368542;28;20038;-64
2022/10/16 20:18:54;;;;;;;5.70;2.22;;;15.30;99.90;;;;;;10375929;28;20028;-62
2022/10/16 20:23:56;;;;;;;6.50;2.50;;;15.30;99.90;;;;;;10374908;28;20018;-62
2022/10/16 20:28:57;;;;;;;3.55;2.15;;;15.20;99.90;;;;;;10374522;28;20146;-62
2022/10/16 20:34:01;;;;;;;4.32;2.22;;;15.20;99.90;;;;;;10376551;28;20144;-61
2022/10/16 20:39:04;;;;;;;4.43;2.38;;;15.20;99.90;;;;;;10386926;28;20026;-62
2022/10/16 20:44:05;;;;;;;5.55;2.30;;;15.20;99.90;;;;;;10379709;28;20025;-62
2022/10/16 20:49:07;;;;;;;3.67;2.17;;;15.20;99.90;;;;;;10379291;28;20034;-62
2022/10/16 20:54:10;;;;;;;4.72;2.10;;;15.20;99.90;;;;;;10384700;28;20037;-62
2022/10/16 20:59:11;;;;;;;3.50;2.03;;;15.20;99.90;;;;;;10378920;28;20402;-62
2022/10/16 21:04:12;;;;;;;4.93;2.40;;;15.20;99.90;;;;;;10385285;28;20053;-62
2022/10/16 21:09:13;;;;;;;8.05;2.75;;;15.20;99.90;;;;;;10384963;28;20026;-62
2022/10/16 21:14:14;;;;;;;6.63;2.60;;;15.20;99.90;;;;;;10375438;28;20056;-62
2022/10/16 21:19:15;;;;;;;2.72;2.22;;;15.20;99.90;;;;;;10383150;28;20029;-67
2022/10/16 21:24:16;;;;;;;3.80;2.42;;;15.10;99.90;;;;;;10385110;28;20036;-61
2022/10/16 21:29:17;;;;;;;4.60;2.42;;;15.10;99.90;;;;;;10380468;28;20511;-62
2022/10/16 21:34:18;;;;;;;4.38;2.80;;;15.10;99.90;;;;;;10378766;28;20089;-62
2022/10/16 21:39:20;;;;;;;3.88;2.80;;;15.10;99.90;;;;;;10384711;28;20021;-62
2022/10/16 21:44:21;;;;;;;3.40;2.40;;;15.10;99.90;;;;;;10379032;28;20479;-62
2022/10/16 21:49:21;;;;;;;4.35;2.47;;;15.10;99.90;;;;;;10380706;28;20033;-62
2022/10/16 21:54:23;;;;;;;6.53;2.55;;;15.10;99.80;;;;;;10373925;28;20041;-62
2022/10/16 21:59:23;;;;;;;3.72;2.40;;;15.10;99.80;;;;;;10376978;28;20053;-62
2022/10/16 22:04:24;;;;;;;5.13;2.65;;;15.10;99.80;;;;;;10381295;28;20139;-62
2022/10/16 22:09:25;;;;;;;5.47;2.83;;;15.10;99.80;;;;;;10398408;28;20031;-62
2022/10/16 22:14:25;;;;;;;4.60;2.53;;;15.10;99.80;;;;;;10388298;28;20141;-62
2022/10/16 22:19:26;;;;;;;4.65;2.30;;;15.00;99.80;;;;;;10394846;28;20034;-62
2022/10/16 22:24:27;;;;;;;6.47;2.53;;;15.10;99.80;;;;;;10395036;28;20036;-62
2022/10/16 22:29:28;;;;;;;3.42;2.25;;;15.10;99.80;;;;;;10396906;28;20038;-61
2022/10/16 22:34:29;;;;;;;6.70;2.50;;;15.10;99.80;;;;;;10396638;28;20437;-62
2022/10/16 22:39:29;;;;;;;4.35;2.30;;;15.00;99.80;;;;;;10398218;28;20021;-62
2022/10/16 22:44:30;;;;;;;5.60;2.22;;;15.00;99.80;;;;;;10393330;28;20111;-64
2022/10/16 22:49:31;;;;;;;4.63;2.35;;;15.00;99.80;;;;;;10395746;28;20120;-62
2022/10/16 22:54:31;;;;;;;5.97;2.25;;;15.00;99.80;;;;;;10396267;28;20248;-62
2022/10/16 22:59:32;;;;;;;4.53;2.17;;;15.00;99.80;;;;;;10395754;28;20075;-61
2022/10/16 23:04:33;;;;;;;5.75;2.30;;;15.00;99.80;;;;;;10396381;28;20054;-62
2022/10/16 23:09:33;;;;;;;2.92;2.00;;;15.00;99.80;;;;;;10396913;28;20026;-62
2022/10/16 23:14:34;;;;;;;3.08;2.28;;;15.00;99.80;;;;;;10397473;28;20044;-62
2022/10/16 23:19:35;;;;;;;4.30;2.20;;;15.00;99.80;;;;;;10394052;28;20030;-63
2022/10/16 23:24:36;;;;;;;2.92;1.92;;;15.00;99.80;;;;;;10395182;28;20048;-62
2022/10/16 23:29:37;;;;;;;4.00;1.80;;;15.00;99.80;;;;;;10397038;28;20068;-62
2022/10/16 23:34:38;;;;;;;3.67;1.98;;;15.00;99.80;;;;;;10395485;28;20049;-62
2022/10/16 23:39:38;;;;;;;3.67;2.22;;;15.00;99.80;;;;;;10395346;28;20021;-62
2022/10/16 23:44:39;;;;;;;3.53;1.85;;;15.00;99.80;;;;;;10393945;28;20029;-62
2022/10/16 23:49:40;;;;;;;3.85;2.10;;;15.00;99.80;;;;;;10394366;28;20100;-64
2022/10/16 23:54:41;;;;;;;4.22;2.05;;;15.00;99.80;;;;;;10397408;28;20076;-62
2022/10/16 23:59:41;;;;;;;3.88;1.90;;;15.00;99.80;;;;;;10395683;28;20021;-62
